createdAt,value
2023-04-09T00:01:12.496Z,4.13
2023-04-09T00:03:43.480Z,4.07
2023-04-09T00:06:12.569Z,3.03
2023-04-09T00:08:40.072Z,3.57
2023-04-09T00:11:07.484Z,3.40
2023-04-09T00:13:39.735Z,3.42
2023-04-09T00:16:08.825Z,3.75
2023-04-09T00:18:36.630Z,4.00
2023-04-09T00:21:04.191Z,2.73
2023-04-09T00:23:31.734Z,4.15
2023-04-09T00:25:59.255Z,4.45
2023-04-09T00:28:26.709Z,3.25
2023-04-09T00:30:54.074Z,3.57
2023-04-09T00:33:21.536Z,2.30
2023-04-09T00:35:49.068Z,5.00
2023-04-09T00:38:16.867Z,4.38
2023-04-09T00:40:44.328Z,3.92
2023-04-09T00:43:12.669Z,3.83
2023-04-09T00:45:40.111Z,5.03
2023-04-09T00:48:07.847Z,4.10
2023-04-09T00:50:35.593Z,4.28
2023-04-09T00:53:03.118Z,3.87
2023-04-09T00:55:31.124Z,5.70
2023-04-09T00:57:58.518Z,2.70
2023-04-09T01:00:26.739Z,4.07
2023-04-09T01:02:56.492Z,2.93
2023-04-09T01:05:34.366Z,4.43
2023-04-09T01:08:22.624Z,4.10
2023-04-09T01:11:15.608Z,2.40
2023-04-09T01:13:56.399Z,3.73
2023-04-09T01:16:24.813Z,4.30
2023-04-09T01:18:59.929Z,2.13
2023-04-09T01:21:32.760Z,2.53
2023-04-09T01:24:09.792Z,3.00
2023-04-09T01:27:01.724Z,2.80
2023-04-09T01:29:33.022Z,2.77
2023-04-09T01:32:03.289Z,3.97
2023-04-09T01:34:31.700Z,4.33
2023-04-09T01:37:02.578Z,5.33
2023-04-09T01:39:30.774Z,5.67
2023-04-09T01:41:58.279Z,3.67
2023-04-09T01:44:27.118Z,3.53
2023-04-09T01:46:56.087Z,3.63
2023-04-09T01:49:23.545Z,2.80
2023-04-09T01:51:52.119Z,3.03
2023-04-09T01:54:19.607Z,5.07
2023-04-09T01:56:48.588Z,3.33
2023-04-09T01:59:16.586Z,4.47
2023-04-09T02:02:05.879Z,3.43
2023-04-09T02:04:36.990Z,2.87
2023-04-09T02:07:11.376Z,4.07
2023-04-09T02:09:41.456Z,3.33
2023-04-09T02:12:13.836Z,2.80
2023-04-09T02:14:42.852Z,3.30
2023-04-09T02:17:10.493Z,3.43
2023-04-09T02:19:45.710Z,4.80
2023-04-09T02:22:13.920Z,3.03
2023-04-09T02:24:41.599Z,2.90
2023-04-09T02:27:09.350Z,2.87
2023-04-09T02:29:36.785Z,2.60
2023-04-09T02:32:04.402Z,4.00
2023-04-09T02:34:31.845Z,2.63
2023-04-09T02:36:59.144Z,5.00
2023-04-09T02:39:27.379Z,3.27
2023-04-09T02:41:54.847Z,3.93
2023-04-09T02:44:22.548Z,2.53
2023-04-09T02:46:52.725Z,5.30
2023-04-09T02:49:20.112Z,3.17
2023-04-09T02:51:47.409Z,2.87
2023-04-09T02:54:15.123Z,3.27
2023-04-09T02:56:42.704Z,2.57
2023-04-09T02:59:10.107Z,3.17
2023-04-09T03:01:37.512Z,2.83
2023-04-09T03:04:05.076Z,4.67
2023-04-09T03:06:32.881Z,3.27
2023-04-09T03:09:00.333Z,4.43
2023-04-09T03:11:27.809Z,4.93
2023-04-09T03:13:55.216Z,3.80
2023-04-09T03:16:25.138Z,3.57
2023-04-09T03:18:52.888Z,4.00
2023-04-09T03:21:21.204Z,3.47
2023-04-09T03:23:48.688Z,5.40
2023-04-09T03:26:16.537Z,3.43
2023-04-09T03:28:43.985Z,4.03
2023-04-09T03:31:11.491Z,3.40
2023-04-09T03:33:38.869Z,2.80
2023-04-09T03:36:06.635Z,2.60
2023-04-09T03:38:34.096Z,3.07
2023-04-09T03:41:01.480Z,3.57
2023-04-09T03:43:28.929Z,2.33
2023-04-09T03:45:56.387Z,3.60
2023-04-09T03:48:23.862Z,3.60
2023-04-09T03:50:53.795Z,2.93
2023-04-09T03:53:21.316Z,3.23
2023-04-09T03:55:48.728Z,2.60
2023-04-09T03:58:16.147Z,3.57
2023-04-09T04:00:43.784Z,2.97
2023-04-09T04:03:12.395Z,4.57
2023-04-09T04:05:39.922Z,3.03
2023-04-09T04:08:07.291Z,2.73
2023-04-09T04:10:35.303Z,4.20
2023-04-09T04:13:03.110Z,2.70
2023-04-09T04:15:30.880Z,2.67
2023-04-09T04:17:59.647Z,3.10
2023-04-09T04:20:27.115Z,2.90
2023-04-09T04:22:54.453Z,3.33
2023-04-09T04:25:21.839Z,3.00
2023-04-09T04:27:49.164Z,3.33
2023-04-09T04:30:16.611Z,2.43
2023-04-09T04:32:44.042Z,5.30
2023-04-09T04:35:11.414Z,5.83
2023-04-09T04:37:38.713Z,3.40
2023-04-09T04:40:07.050Z,3.20
2023-04-09T04:42:34.999Z,4.27
2023-04-09T04:45:02.338Z,2.40
2023-04-09T04:47:29.694Z,2.37
2023-04-09T04:49:57.033Z,3.67
2023-04-09T04:52:24.545Z,3.57
2023-04-09T04:54:51.965Z,4.60
2023-04-09T04:57:19.420Z,3.43
2023-04-09T04:59:46.922Z,3.90
2023-04-09T05:02:14.382Z,3.30
2023-04-09T05:04:42.184Z,3.77
2023-04-09T05:07:09.506Z,4.07
2023-04-09T05:09:36.824Z,3.90
2023-04-09T05:12:04.581Z,2.97
2023-04-09T05:14:32.072Z,6.57
2023-04-09T05:16:59.901Z,3.17
2023-04-09T05:19:27.525Z,3.50
2023-04-09T05:21:54.978Z,6.20
2023-04-09T05:24:22.597Z,4.63
2023-04-09T05:26:50.554Z,3.50
2023-04-09T05:29:17.969Z,4.17
2023-04-09T05:31:45.493Z,3.23
2023-04-09T05:34:13.019Z,3.40
2023-04-09T05:36:40.651Z,4.18
2023-04-09T05:39:08.065Z,2.03
2023-04-09T05:41:37.453Z,3.22
2023-04-09T05:44:04.946Z,3.10
2023-04-09T05:46:32.489Z,4.10
2023-04-09T05:48:59.843Z,2.78
2023-04-09T05:51:27.481Z,3.07
2023-04-09T05:53:54.951Z,4.00
2023-04-09T05:56:25.311Z,3.40
2023-04-09T05:58:52.846Z,5.22
2023-04-09T06:01:21.214Z,2.78
2023-04-09T06:03:48.656Z,6.05
2023-04-09T06:06:17.549Z,3.50
2023-04-09T06:08:45.464Z,4.90
2023-04-09T06:11:13.414Z,3.08
2023-04-09T06:13:41.583Z,3.40
2023-04-09T06:16:09.810Z,2.65
2023-04-09T06:18:37.791Z,3.22
2023-04-09T06:21:09.741Z,3.15
2023-04-09T06:23:37.362Z,3.33
2023-04-09T06:26:04.792Z,4.38
2023-04-09T06:28:33.589Z,4.95
2023-04-09T06:31:01.233Z,2.10
2023-04-09T06:33:28.572Z,3.00
2023-04-09T06:35:56.401Z,3.03
2023-04-09T06:38:23.713Z,3.30
2023-04-09T06:40:52.132Z,5.15
2023-04-09T06:43:19.582Z,5.85
2023-04-09T06:45:47.522Z,3.13
2023-04-09T06:48:14.827Z,4.75
2023-04-09T06:50:42.153Z,3.47
2023-04-09T06:53:09.459Z,2.95
2023-04-09T06:55:36.819Z,2.25
2023-04-09T06:58:04.349Z,3.00
2023-04-09T07:00:32.198Z,5.20
2023-04-09T07:02:59.936Z,2.58
2023-04-09T07:05:27.635Z,6.93
2023-04-09T07:07:55.033Z,4.10
2023-04-09T07:10:22.485Z,3.28
2023-04-09T07:12:49.879Z,5.43
2023-04-09T07:15:17.314Z,2.40
2023-04-09T07:17:44.875Z,2.97
2023-04-09T07:20:12.487Z,3.60
2023-04-09T07:22:39.867Z,5.18
2023-04-09T07:25:07.942Z,1.95
2023-04-09T07:27:35.957Z,2.35
2023-04-09T07:30:03.862Z,2.50
2023-04-09T07:32:31.457Z,2.83
2023-04-09T07:34:59.628Z,3.22
2023-04-09T07:37:27.422Z,3.33
2023-04-09T07:39:54.966Z,2.58
2023-04-09T07:42:22.591Z,2.25
2023-04-09T07:44:50.010Z,3.47
2023-04-09T07:47:17.400Z,4.07
2023-04-09T07:49:44.814Z,4.18
2023-04-09T07:52:12.191Z,2.08
2023-04-09T07:54:39.491Z,3.72
2023-04-09T07:57:07.065Z,3.35
2023-04-09T07:59:35.263Z,2.95
2023-04-09T08:02:02.985Z,2.22
2023-04-09T08:04:30.787Z,1.88
2023-04-09T08:06:58.267Z,1.92
2023-04-09T08:09:25.752Z,2.63
2023-04-09T08:11:53.434Z,2.50
2023-04-09T08:14:21.398Z,4.65
2023-04-09T08:16:50.561Z,3.88
2023-04-09T08:19:20.197Z,1.52
2023-04-09T08:21:50.546Z,5.10
2023-04-09T08:24:18.411Z,2.50
2023-04-09T08:26:46.201Z,2.22
2023-04-09T08:29:15.055Z,2.28
2023-04-09T08:31:43.144Z,2.28
2023-04-09T08:34:10.693Z,3.20
2023-04-09T08:36:38.450Z,3.17
2023-04-09T08:39:05.784Z,2.25
2023-04-09T08:41:34.517Z,4.18
2023-04-09T08:44:02.123Z,3.08
2023-04-09T08:46:29.483Z,2.38
2023-04-09T08:48:57.355Z,3.58
2023-04-09T08:51:25.758Z,2.55
2023-04-09T08:53:57.634Z,3.40
2023-04-09T08:56:26.567Z,2.85
2023-04-09T08:58:55.411Z,3.28
2023-04-09T09:01:27.736Z,4.25
2023-04-09T09:04:06.855Z,4.40
2023-04-09T09:06:38.933Z,2.40
2023-04-09T09:09:16.695Z,2.65
2023-04-09T09:11:50.310Z,3.25
2023-04-09T09:14:19.472Z,2.92
2023-04-09T09:16:56.169Z,2.92
2023-04-09T09:19:26.956Z,3.78
2023-04-09T09:22:02.096Z,3.75
2023-04-09T09:24:30.544Z,2.00
2023-04-09T09:26:59.026Z,2.03
2023-04-09T09:29:28.613Z,5.75
2023-04-09T09:31:56.774Z,2.72
2023-04-09T09:34:26.228Z,6.25
2023-04-09T09:36:53.734Z,4.18
2023-04-09T09:39:22.348Z,2.65
2023-04-09T09:42:08.007Z,6.40
2023-04-09T09:44:35.355Z,3.97
2023-04-09T09:47:05.010Z,2.97
2023-04-09T09:49:32.328Z,3.20
2023-04-09T09:52:03.051Z,3.08
2023-04-09T09:54:40.530Z,5.68
2023-04-09T09:57:10.275Z,3.05
2023-04-09T09:59:39.969Z,3.03
2023-04-09T10:02:19.175Z,3.30
2023-04-09T10:04:49.008Z,3.55
2023-04-09T10:07:16.669Z,4.43
2023-04-09T10:09:53.058Z,2.25
2023-04-09T10:12:25.133Z,3.40
2023-04-09T10:14:53.273Z,3.42
2023-04-09T10:17:21.911Z,5.57
2023-04-09T10:20:20.931Z,5.68
2023-04-09T10:22:51.181Z,5.07
2023-04-09T10:25:19.058Z,3.35
2023-04-09T10:27:49.228Z,5.15
2023-04-09T10:30:37.318Z,10.35
2023-04-09T10:33:17.590Z,6.90
2023-04-09T10:35:47.970Z,5.63
2023-04-09T10:38:15.732Z,5.30
2023-04-09T10:40:51.551Z,5.50
2023-04-09T10:43:23.723Z,4.40
2023-04-09T10:45:54.547Z,5.47
2023-04-09T10:48:26.268Z,3.17
2023-04-09T10:50:53.588Z,4.82
2023-04-09T10:53:25.811Z,4.25
2023-04-09T10:55:54.272Z,4.75
2023-04-09T10:58:21.756Z,7.22
2023-04-09T11:00:50.975Z,4.95
2023-04-09T11:03:27.772Z,5.15
2023-04-09T11:06:02.543Z,6.70
2023-04-09T11:08:33.920Z,8.48
2023-04-09T11:11:02.555Z,3.38
2023-04-09T11:13:31.724Z,3.00
2023-04-09T11:16:01.613Z,3.78
2023-04-09T11:18:30.550Z,5.38
2023-04-09T11:20:59.905Z,3.58
2023-04-09T11:23:27.843Z,4.28
2023-04-09T11:25:56.217Z,4.88
2023-04-09T11:28:24.398Z,1.98
2023-04-09T11:30:52.435Z,4.95
2023-04-09T11:33:20.571Z,5.30
2023-04-09T11:35:49.075Z,5.40
2023-04-09T11:38:16.836Z,7.22
2023-04-09T11:40:51.681Z,7.55
2023-04-09T11:43:21.241Z,6.30
2023-04-09T11:45:49.242Z,3.10
2023-04-09T11:48:18.704Z,4.93
2023-04-09T11:50:47.529Z,4.32
2023-04-09T11:53:21.178Z,4.40
2023-04-09T11:55:51.538Z,7.85
2023-04-09T11:58:22.290Z,5.03
2023-04-09T12:00:52.530Z,7.88
2023-04-09T12:03:27.544Z,3.88
2023-04-09T12:05:55.270Z,3.97
2023-04-09T12:08:25.496Z,7.22
2023-04-09T12:10:54.128Z,3.78
2023-04-09T12:13:22.075Z,2.45
2023-04-09T12:15:50.218Z,3.60
2023-04-09T12:18:18.942Z,3.10
2023-04-09T12:20:49.755Z,4.55
2023-04-09T12:23:17.346Z,2.63
2023-04-09T12:25:45.747Z,5.90
2023-04-09T12:28:18.757Z,3.40
2023-04-09T12:30:47.120Z,3.35
2023-04-09T12:33:14.607Z,4.22
2023-04-09T12:35:42.250Z,4.03
2023-04-09T12:38:09.684Z,5.00
2023-04-09T12:40:37.309Z,8.18
2023-04-09T12:43:05.494Z,4.82
2023-04-09T12:45:33.841Z,6.15
2023-04-09T12:48:01.613Z,7.93
2023-04-09T12:50:29.184Z,2.65
2023-04-09T12:52:56.614Z,8.10
2023-04-09T12:55:24.116Z,3.05
2023-04-09T12:57:52.093Z,7.22
2023-04-09T13:00:19.647Z,6.25
2023-04-09T13:02:51.724Z,7.05
2023-04-09T13:05:19.135Z,6.45
2023-04-09T13:07:47.059Z,7.47
2023-04-09T13:10:14.405Z,8.98
2023-04-09T13:12:41.762Z,5.03
2023-04-09T13:15:09.481Z,9.60
2023-04-09T13:17:36.890Z,5.22
2023-04-09T13:20:04.870Z,3.03
2023-04-09T13:22:32.381Z,4.82
2023-04-09T13:24:59.808Z,5.13
2023-04-09T13:27:30.109Z,5.03
2023-04-09T13:29:57.588Z,6.15
2023-04-09T13:32:25.081Z,5.32
2023-04-09T13:34:54.251Z,4.72
2023-04-09T13:37:21.639Z,5.20
2023-04-09T13:39:50.614Z,4.22
2023-04-09T13:42:18.554Z,3.78
2023-04-09T13:44:45.972Z,5.40
2023-04-09T13:47:14.118Z,5.55
2023-04-09T13:49:42.046Z,6.07
2023-04-09T13:52:10.781Z,3.42
2023-04-09T13:54:38.331Z,4.55
2023-04-09T13:57:05.805Z,4.80
2023-04-09T13:59:33.176Z,6.25
2023-04-09T14:02:00.998Z,6.57
2023-04-09T14:04:28.440Z,2.35
2023-04-09T14:06:57.285Z,4.43
2023-04-09T14:09:24.817Z,3.53
2023-04-09T14:11:52.231Z,4.47
2023-04-09T14:14:20.009Z,3.80
2023-04-09T14:16:48.589Z,6.25
2023-04-09T14:19:16.051Z,5.70
2023-04-09T14:21:43.563Z,4.80
2023-04-09T14:24:11.131Z,5.72
2023-04-09T14:26:38.443Z,4.57
2023-04-09T14:29:05.784Z,4.88
2023-04-09T14:31:33.194Z,8.50
2023-04-09T14:34:00.725Z,4.35
2023-04-09T14:36:28.167Z,4.93
2023-04-09T14:38:57.777Z,5.95
2023-04-09T14:41:26.260Z,10.05
2023-04-09T14:43:53.600Z,3.58
2023-04-09T14:46:22.298Z,3.65
2023-04-09T14:48:49.759Z,6.93
2023-04-09T14:51:17.661Z,4.20
2023-04-09T14:53:45.059Z,6.68
2023-04-09T14:56:12.452Z,3.78
2023-04-09T14:58:40.171Z,7.55
2023-04-09T15:01:07.764Z,6.80
2023-04-09T15:03:35.421Z,4.00
2023-04-09T15:06:03.221Z,2.72
2023-04-09T15:08:30.680Z,3.80
2023-04-09T15:10:57.981Z,4.20
2023-04-09T15:13:25.438Z,6.00
2023-04-09T15:15:53.061Z,4.82
2023-04-09T15:18:21.835Z,4.28
2023-04-09T15:20:49.465Z,3.47
2023-04-09T15:23:16.950Z,4.00
2023-04-09T15:25:44.346Z,10.55
2023-04-09T15:28:11.855Z,6.03
2023-04-09T15:30:39.472Z,6.20
2023-04-09T15:33:06.893Z,7.10
2023-04-09T15:35:35.173Z,5.35
2023-04-09T15:38:02.607Z,4.95
2023-04-09T15:40:31.209Z,9.32
2023-04-09T15:42:58.569Z,8.70
2023-04-09T15:45:26.679Z,11.70
2023-04-09T15:47:54.301Z,6.88
2023-04-09T15:50:21.926Z,7.00
2023-04-09T15:52:49.313Z,6.22
2023-04-09T15:55:17.040Z,6.80
2023-04-09T15:57:47.091Z,5.50
2023-04-09T16:00:15.556Z,6.68
2023-04-09T16:02:43.343Z,5.88
2023-04-09T16:05:10.700Z,9.30
2023-04-09T16:07:39.735Z,5.35
2023-04-09T16:10:07.881Z,5.95
2023-04-09T16:12:35.444Z,7.13
2023-04-09T16:15:03.267Z,6.32
2023-04-09T16:17:31.070Z,17.48
2023-04-09T16:19:58.574Z,12.40
2023-04-09T16:22:26.712Z,6.72
2023-04-09T16:24:54.275Z,8.70
2023-04-09T16:27:22.187Z,8.90
2023-04-09T16:29:50.195Z,9.77
2023-04-09T16:32:18.000Z,7.70
2023-04-09T16:34:46.076Z,10.48
2023-04-09T16:37:14.009Z,6.43
2023-04-09T16:39:42.076Z,7.00
2023-04-09T16:42:11.158Z,7.55
2023-04-09T16:44:38.950Z,7.13
2023-04-09T16:47:08.347Z,12.98
2023-04-09T16:49:36.173Z,7.45
2023-04-09T16:52:03.787Z,6.75
2023-04-09T16:54:31.404Z,6.40
2023-04-09T16:56:59.075Z,7.63
2023-04-09T16:59:26.710Z,9.43
2023-04-09T17:01:54.588Z,13.32
2023-04-09T17:04:23.172Z,9.07
2023-04-09T17:06:50.458Z,7.63
2023-04-09T17:09:17.748Z,11.48
2023-04-09T17:11:45.037Z,9.43
2023-04-09T17:14:12.546Z,7.57
2023-04-09T17:16:40.143Z,6.43
2023-04-09T17:19:08.966Z,5.45
2023-04-09T17:21:36.604Z,8.80
2023-04-09T17:24:04.157Z,9.98
2023-04-09T17:26:32.171Z,14.88
2023-04-09T17:28:59.549Z,7.90
2023-04-09T17:31:27.804Z,10.32
2023-04-09T17:33:55.453Z,9.02
2023-04-09T17:36:23.761Z,7.07
2023-04-09T17:38:53.236Z,6.32
2023-04-09T17:41:20.793Z,9.13
2023-04-09T17:43:48.328Z,3.47
2023-04-09T17:46:17.187Z,6.55
2023-04-09T17:48:44.928Z,5.70
2023-04-09T17:51:18.885Z,6.07
2023-04-09T17:53:47.641Z,14.93
2023-04-09T17:56:18.408Z,8.25
2023-04-09T17:58:46.987Z,11.15
2023-04-09T18:01:14.994Z,7.80
2023-04-09T18:03:43.106Z,7.20
2023-04-09T18:06:10.872Z,5.50
2023-04-09T18:08:38.272Z,7.75
2023-04-09T18:11:12.863Z,9.88
2023-04-09T18:13:41.508Z,9.02
2023-04-09T18:16:12.808Z,9.10
2023-04-09T18:18:40.793Z,7.95
2023-04-09T18:21:08.357Z,5.50
2023-04-09T18:23:35.904Z,5.88
2023-04-09T18:26:03.399Z,7.97
2023-04-09T18:28:30.781Z,5.80
2023-04-09T18:30:58.958Z,6.30
2023-04-09T18:33:27.218Z,7.43
2023-04-09T18:35:54.591Z,6.32
2023-04-09T18:38:22.100Z,6.03
2023-04-09T18:40:49.575Z,8.25
2023-04-09T18:43:16.919Z,5.93
2023-04-09T18:45:44.277Z,5.60
2023-04-09T18:48:11.598Z,6.63
2023-04-09T18:50:39.021Z,5.10
2023-04-09T18:53:07.281Z,5.80
2023-04-09T18:55:38.376Z,5.45
2023-04-09T18:58:12.861Z,8.93
2023-04-09T19:00:40.968Z,7.15
2023-04-09T19:03:08.823Z,6.47
2023-04-09T19:05:36.502Z,5.55
2023-04-09T19:08:06.964Z,4.70
2023-04-09T19:10:34.334Z,5.05
2023-04-09T19:13:02.210Z,9.13
2023-04-09T19:15:29.786Z,8.00
2023-04-09T19:17:57.704Z,4.43
2023-04-09T19:20:25.125Z,16.48
2023-04-09T19:22:57.488Z,11.10
2023-04-09T19:25:25.077Z,8.52
2023-04-09T19:27:54.261Z,12.27
2023-04-09T19:30:21.902Z,12.40
2023-04-09T19:32:49.582Z,9.20
2023-04-09T19:35:17.055Z,10.63
2023-04-09T19:37:45.048Z,8.75
2023-04-09T19:40:15.713Z,5.80
2023-04-09T19:42:43.149Z,10.20
2023-04-09T19:45:11.153Z,10.02
2023-04-09T19:47:38.823Z,7.38
2023-04-09T19:50:07.211Z,11.32
2023-04-09T19:52:34.579Z,11.63
2023-04-09T19:55:05.102Z,5.85
2023-04-09T19:57:32.826Z,8.48
2023-04-09T20:00:00.292Z,10.15
2023-04-09T20:02:28.340Z,15.38
2023-04-09T20:04:56.131Z,11.85
2023-04-09T20:07:23.446Z,11.30
2023-04-09T20:09:50.975Z,8.80
2023-04-09T20:12:19.423Z,6.90
2023-04-09T20:14:47.172Z,7.85
2023-04-09T20:17:14.627Z,9.88
2023-04-09T20:19:42.143Z,7.43
2023-04-09T20:22:09.447Z,4.32
2023-04-09T20:24:37.168Z,6.00
2023-04-09T20:27:05.045Z,11.45
2023-04-09T20:29:32.343Z,12.52
2023-04-09T20:31:59.771Z,10.15
2023-04-09T20:34:27.567Z,6.68
2023-04-09T20:36:55.627Z,6.38
2023-04-09T20:39:26.846Z,3.60
2023-04-09T20:41:55.332Z,8.65
2023-04-09T20:44:24.669Z,14.35
2023-04-09T20:46:52.759Z,9.48
2023-04-09T20:49:20.448Z,10.90
2023-04-09T20:51:47.878Z,8.93
2023-04-09T20:54:18.061Z,11.65
2023-04-09T20:56:45.551Z,9.55
2023-04-09T20:59:12.860Z,10.35
2023-04-09T21:01:40.468Z,9.23
2023-04-09T21:04:08.937Z,14.93
2023-04-09T21:06:36.430Z,6.28
2023-04-09T21:09:03.867Z,9.50
2023-04-09T21:11:31.334Z,7.93
2023-04-09T21:13:59.228Z,5.38
2023-04-09T21:16:28.730Z,9.40
2023-04-09T21:18:56.587Z,11.35
2023-04-09T21:21:24.274Z,10.65
2023-04-09T21:23:51.736Z,9.13
2023-04-09T21:26:19.143Z,7.47
2023-04-09T21:28:48.376Z,5.82
2023-04-09T21:31:16.120Z,8.45
2023-04-09T21:33:43.743Z,8.07
2023-04-09T21:36:11.284Z,6.10
2023-04-09T21:38:38.792Z,8.75
2023-04-09T21:41:06.307Z,5.95
2023-04-09T21:43:34.800Z,6.43
2023-04-09T21:46:03.195Z,7.97
2023-04-09T21:48:31.009Z,8.40
2023-04-09T21:50:58.769Z,9.15
2023-04-09T21:53:27.316Z,6.65
2023-04-09T21:55:54.676Z,6.13
2023-04-09T21:58:22.387Z,5.40
2023-04-09T22:00:49.780Z,4.68
2023-04-09T22:03:17.316Z,5.10
2023-04-09T22:05:44.850Z,4.90
2023-04-09T22:08:13.218Z,7.43
2023-04-09T22:10:40.640Z,5.07
2023-04-09T22:13:08.198Z,4.50
2023-04-09T22:15:35.674Z,4.13
2023-04-09T22:18:03.814Z,5.60
2023-04-09T22:20:31.282Z,4.63
2023-04-09T22:22:58.836Z,5.47
2023-04-09T22:25:26.197Z,5.78
2023-04-09T22:27:53.903Z,6.15
2023-04-09T22:30:22.029Z,4.78
2023-04-09T22:32:50.195Z,7.90
2023-04-09T22:35:18.481Z,5.20
2023-04-09T22:37:47.253Z,6.38
2023-04-09T22:40:16.125Z,7.30
2023-04-09T22:42:48.640Z,6.47
2023-04-09T22:45:16.256Z,6.80
2023-04-09T22:47:43.778Z,7.53
2023-04-09T22:50:11.780Z,8.45
2023-04-09T22:52:39.206Z,7.68
2023-04-09T22:55:10.252Z,7.78
2023-04-09T22:57:38.517Z,7.22
2023-04-09T23:00:06.700Z,6.47
2023-04-09T23:02:34.336Z,6.63
2023-04-09T23:05:02.598Z,6.05
2023-04-09T23:07:30.210Z,7.43
2023-04-09T23:09:57.600Z,11.48
2023-04-09T23:12:24.997Z,6.30
2023-04-09T23:14:54.031Z,6.50
2023-04-09T23:17:22.912Z,7.28
2023-04-09T23:19:52.696Z,8.13
2023-04-09T23:22:20.134Z,6.97
2023-04-09T23:24:47.479Z,5.30
2023-04-09T23:27:14.995Z,6.93
2023-04-09T23:29:42.512Z,6.03
2023-04-09T23:32:10.146Z,7.03
2023-04-09T23:34:37.589Z,10.48
2023-04-09T23:37:04.916Z,6.90
2023-04-09T23:39:32.242Z,7.95
2023-04-09T23:41:59.700Z,6.38
2023-04-09T23:44:27.394Z,8.77
2023-04-09T23:46:54.845Z,7.25
2023-04-09T23:49:22.836Z,3.97
2023-04-09T23:51:51.582Z,6.47
2023-04-09T23:54:19.027Z,6.63
2023-04-09T23:56:47.040Z,9.10
2023-04-09T23:59:14.565Z,8.80
